Time;durP1;ratioP1;P1;durP2;ratioP2;P2;SDS_P1;SDS_P2;PMS_P1;PMS_P2;Temp;Humidity;BMP_temperature;BMP_pressure;BME280_temperature;BME280_humidity;BME280_pressure;Samples;Min_cycle;Max_cycle;Signal;HPM_P1;HPM_P2
2023/09/03 00:01:30;;;;;;;7.68;5.22;;;16.00;1.00;;;;;;5069056;28;20816;-68
2023/09/03 00:03:56;;;;;;;6.57;5.40;;;15.90;1.00;;;;;;5069363;28;20403;-68
2023/09/03 00:06:21;;;;;;;6.60;5.10;;;15.90;1.00;;;;;;5086293;28;20768;-68
2023/09/03 00:08:48;;;;;;;7.10;4.80;;;15.80;1.00;;;;;;5087924;28;20486;-68
2023/09/03 00:11:15;;;;;;;6.50;5.20;;;15.80;1.00;;;;;;5082248;28;20411;-68
2023/09/03 00:13:42;;;;;;;7.60;5.05;;;15.70;1.00;;;;;;5068384;28;20427;-68
2023/09/03 00:16:08;;;;;;;6.57;4.80;;;15.70;1.00;;;;;;5049841;28;20409;-68
2023/09/03 00:18:34;;;;;;;7.32;4.80;;;15.60;1.00;;;;;;5060640;28;20408;-68
2023/09/03 00:21:03;;;;;;;7.63;4.70;;;15.60;1.00;;;;;;5068228;28;20403;-69
2023/09/03 00:23:29;;;;;;;6.90;4.93;;;15.60;1.00;;;;;;5069101;28;20775;-68
2023/09/03 00:25:58;;;;;;;6.15;4.90;;;15.60;1.00;;;;;;5068351;28;20471;-69
2023/09/03 00:28:25;;;;;;;7.00;4.68;;;15.50;1.00;;;;;;5069109;28;20438;-69
2023/09/03 00:31:08;;;;;;;7.68;4.75;;;15.50;1.00;;;;;;5056275;28;20974;-69
2023/09/03 00:33:34;;;;;;;5.50;4.38;;;15.50;1.00;;;;;;5067949;28;20432;-69
2023/09/03 00:36:03;;;;;;;7.88;5.35;;;15.50;1.00;;;;;;5066944;28;20396;-68
2023/09/03 00:38:29;;;;;;;7.25;5.28;;;15.50;1.00;;;;;;5067877;28;20451;-69
2023/09/03 00:40:55;;;;;;;6.87;5.33;;;15.40;1.00;;;;;;5061242;28;20430;-68
2023/09/03 00:43:20;;;;;;;8.48;5.25;;;15.30;1.00;;;;;;5063290;28;20400;-68
2023/09/03 00:45:47;;;;;;;6.35;5.10;;;15.30;1.00;;;;;;5070354;28;20396;-68
2023/09/03 00:48:15;;;;;;;6.38;4.93;;;15.30;1.00;;;;;;5071862;28;20773;-69
2023/09/03 00:50:41;;;;;;;7.10;5.30;;;15.30;1.00;;;;;;5070277;28;20407;-69
2023/09/03 00:53:09;;;;;;;6.22;4.97;;;15.30;1.00;;;;;;5072287;28;20432;-69
2023/09/03 00:55:36;;;;;;;6.85;5.10;;;15.30;1.00;;;;;;5062530;28;20398;-69
2023/09/03 00:58:03;;;;;;;6.85;5.32;;;15.30;1.00;;;;;;5053200;28;20457;-69
2023/09/03 01:00:29;;;;;;;6.15;5.10;;;15.20;1.00;;;;;;5071224;28;20396;-69
2023/09/03 01:02:56;;;;;;;8.25;5.70;;;15.20;1.00;;;;;;5070215;28;20479;-69
2023/09/03 01:05:22;;;;;;;8.65;5.72;;;15.20;1.00;;;;;;5067768;28;20465;-69
2023/09/03 01:07:49;;;;;;;7.30;5.40;;;15.20;1.00;;;;;;5067079;28;20403;-69
2023/09/03 01:10:16;;;;;;;9.10;6.00;;;15.20;1.00;;;;;;5066968;28;20410;-69
2023/09/03 01:12:59;;;;;;;8.13;5.82;;;15.10;1.00;;;;;;5067489;28;20431;-69
2023/09/03 01:15:38;;;;;;;7.30;6.50;;;15.10;1.00;;;;;;5067692;28;20415;-69
2023/09/03 01:18:18;;;;;;;7.13;6.30;;;15.10;1.00;;;;;;5055833;28;20411;-69
2023/09/03 01:20:58;;;;;;;8.13;6.57;;;15.10;1.00;;;;;;5067705;28;20416;-69
2023/09/03 01:23:37;;;;;;;8.65;7.00;;;15.10;1.00;;;;;;5067822;28;20412;-69
2023/09/03 01:26:12;;;;;;;8.80;7.25;;;15.10;1.00;;;;;;5054655;28;20732;-69
2023/09/03 01:28:42;;;;;;;8.23;7.33;;;15.10;1.00;;;;;;5067162;28;20408;-69
2023/09/03 01:31:13;;;;;;;8.90;7.30;;;15.00;1.00;;;;;;5067295;28;20488;-69
2023/09/03 01:33:41;;;;;;;8.80;7.90;;;15.00;1.00;;;;;;5068497;28;20483;-69
2023/09/03 01:36:09;;;;;;;9.17;7.10;;;15.00;1.00;;;;;;5066044;28;20404;-69
2023/09/03 01:38:38;;;;;;;9.02;7.82;;;15.00;1.00;;;;;;5068760;28;20407;-69
2023/09/03 01:41:05;;;;;;;8.85;7.72;;;15.00;1.00;;;;;;5055818;28;20532;-69
2023/09/03 01:43:31;;;;;;;9.13;7.90;;;15.00;1.00;;;;;;5073166;28;20805;-69
2023/09/03 01:46:13;;;;;;;8.98;7.93;;;15.00;1.00;;;;;;5067859;28;20396;-69
2023/09/03 01:49:07;;;;;;;8.65;7.75;;;15.00;1.00;;;;;;5081348;28;20428;-69
2023/09/03 01:52:02;;;;;;;11.27;8.00;;;14.90;1.00;;;;;;5052732;28;20921;-69
2023/09/03 01:54:33;;;;;;;10.10;8.15;;;15.00;1.00;;;;;;5076298;28;20409;-69
2023/09/03 01:57:08;;;;;;;9.02;7.55;;;14.90;1.00;;;;;;5070166;28;20404;-69
2023/09/03 01:59:48;;;;;;;11.10;7.88;;;14.90;1.00;;;;;;5081893;28;20432;-69
2023/09/03 02:02:16;;;;;;;9.57;7.88;;;14.90;1.00;;;;;;5059900;28;20414;-69
2023/09/03 02:04:42;;;;;;;10.67;8.23;;;14.90;1.00;;;;;;5069793;28;20403;-69
2023/09/03 02:07:08;;;;;;;9.10;8.10;;;14.90;1.00;;;;;;5069253;28;20399;-69
2023/09/03 02:09:33;;;;;;;9.82;8.30;;;14.90;1.00;;;;;;5077033;28;20402;-69
2023/09/03 02:11:59;;;;;;;11.80;8.30;;;14.80;1.00;;;;;;5070061;28;20400;-69
2023/09/03 02:14:26;;;;;;;11.35;8.75;;;14.80;1.00;;;;;;5068736;28;20404;-69
2023/09/03 02:16:52;;;;;;;9.40;8.25;;;14.80;1.00;;;;;;5070353;28;20494;-69
2023/09/03 02:19:18;;;;;;;10.20;8.17;;;14.80;1.00;;;;;;5088586;28;20426;-69
2023/09/03 02:21:44;;;;;;;9.68;8.05;;;14.70;1.00;;;;;;5074846;28;20473;-69
2023/09/03 02:24:09;;;;;;;9.88;7.85;;;14.70;1.00;;;;;;5088610;28;20398;-69
2023/09/03 02:26:45;;;;;;;9.17;8.27;;;14.70;1.00;;;;;;5088172;28;20902;-69
2023/09/03 02:29:12;;;;;;;9.20;8.27;;;14.60;1.00;;;;;;5080447;28;20406;-68
2023/09/03 02:31:38;;;;;;;8.98;7.50;;;14.60;1.00;;;;;;5070696;28;20765;-69
2023/09/03 02:34:05;;;;;;;9.05;8.13;;;14.60;1.00;;;;;;5069742;28;20420;-69
2023/09/03 02:36:31;;;;;;;9.90;8.70;;;14.50;1.00;;;;;;5070253;28;20404;-69
2023/09/03 02:39:05;;;;;;;10.98;8.95;;;14.60;1.00;;;;;;5070318;28;20443;-69
2023/09/03 02:41:31;;;;;;;10.15;8.15;;;14.60;1.00;;;;;;5070194;28;20404;-69
2023/09/03 02:44:01;;;;;;;9.85;7.95;;;14.50;1.00;;;;;;5069652;28;20405;-69
2023/09/03 02:46:27;;;;;;;10.40;8.10;;;14.50;1.00;;;;;;5068928;28;20412;-69
2023/09/03 02:48:53;;;;;;;10.77;8.85;;;14.50;1.00;;;;;;5070272;28;20453;-69
2023/09/03 02:51:20;;;;;;;10.40;8.43;;;14.50;1.00;;;;;;5069442;28;21259;-69
2023/09/03 02:53:46;;;;;;;9.48;8.38;;;14.50;1.00;;;;;;5069542;28;20449;-69
2023/09/03 02:56:13;;;;;;;9.48;8.30;;;14.50;1.00;;;;;;5072616;28;20397;-69
2023/09/03 02:58:39;;;;;;;9.20;8.20;;;14.40;1.00;;;;;;5076645;28;20410;-69
2023/09/03 03:01:10;;;;;;;9.87;8.30;;;14.40;1.00;;;;;;5068402;28;20404;-69
2023/09/03 03:03:36;;;;;;;9.25;7.70;;;14.30;1.00;;;;;;5079564;28;20482;-69
2023/09/03 03:06:02;;;;;;;9.10;7.87;;;14.30;1.00;;;;;;5074752;28;20488;-69
2023/09/03 03:08:27;;;;;;;9.07;8.18;;;14.30;1.00;;;;;;5088504;28;20420;-69
2023/09/03 03:11:03;;;;;;;9.38;7.88;;;14.20;1.00;;;;;;5074369;28;20417;-69
2023/09/03 03:13:29;;;;;;;9.27;8.13;;;14.20;1.00;;;;;;5076552;28;20516;-69
2023/09/03 03:15:54;;;;;;;9.38;7.80;;;14.20;1.00;;;;;;5069544;28;20400;-69
2023/09/03 03:18:20;;;;;;;8.37;7.47;;;14.10;1.00;;;;;;5070017;28;20439;-69
2023/09/03 03:20:45;;;;;;;8.18;7.38;;;14.10;1.00;;;;;;5064797;28;20459;-69
2023/09/03 03:23:11;;;;;;;9.73;8.00;;;14.10;1.00;;;;;;5061336;28;20445;-69
2023/09/03 03:25:36;;;;;;;8.60;7.70;;;14.10;1.00;;;;;;5068320;28;20770;-69
2023/09/03 03:28:02;;;;;;;9.90;8.00;;;14.00;1.00;;;;;;5069457;28;20478;-69
2023/09/03 03:30:28;;;;;;;9.07;7.78;;;14.00;1.00;;;;;;5069118;28;20429;-69
2023/09/03 03:32:54;;;;;;;9.57;8.17;;;14.00;1.00;;;;;;5068940;28;20515;-69
2023/09/03 03:35:19;;;;;;;10.02;8.27;;;13.90;1.00;;;;;;5069680;28;20413;-69
2023/09/03 03:37:45;;;;;;;9.83;8.70;;;14.00;1.00;;;;;;5070154;28;20392;-69
2023/09/03 03:40:11;;;;;;;9.48;8.48;;;14.00;1.00;;;;;;5069324;28;20937;-69
2023/09/03 03:42:36;;;;;;;12.53;9.07;;;14.00;1.00;;;;;;5069515;28;20399;-69
2023/09/03 03:45:02;;;;;;;9.85;8.45;;;14.00;1.00;;;;;;5050520;28;20517;-69
2023/09/03 03:47:28;;;;;;;9.27;8.25;;;14.00;1.00;;;;;;5068210;28;20813;-69
2023/09/03 03:49:54;;;;;;;10.03;8.07;;;14.00;1.00;;;;;;5066737;28;20488;-69
2023/09/03 03:52:19;;;;;;;9.80;8.30;;;14.00;1.00;;;;;;5068847;28;20914;-69
2023/09/03 03:54:47;;;;;;;9.40;8.10;;;14.00;1.00;;;;;;5068793;28;20414;-69
2023/09/03 03:57:12;;;;;;;9.02;7.47;;;14.00;1.00;;;;;;5069133;28;20400;-69
2023/09/03 03:59:39;;;;;;;10.33;8.10;;;13.90;1.00;;;;;;5066122;28;20404;-69
2023/09/03 04:02:04;;;;;;;11.55;8.63;;;14.00;1.00;;;;;;5068209;28;20770;-69
2023/09/03 04:04:30;;;;;;;9.75;8.18;;;14.00;1.00;;;;;;5067035;28;20396;-69
2023/09/03 04:06:55;;;;;;;8.90;7.63;;;14.00;1.00;;;;;;5068070;28;20396;-69
2023/09/03 04:09:21;;;;;;;8.48;7.50;;;14.00;1.00;;;;;;5046501;28;20400;-69
2023/09/03 04:11:48;;;;;;;10.00;8.07;;;14.00;1.00;;;;;;5068786;28;20397;-69
2023/09/03 04:14:14;;;;;;;10.30;8.10;;;13.90;1.00;;;;;;5068605;28;20434;-69
2023/09/03 04:16:40;;;;;;;9.65;8.30;;;13.90;1.00;;;;;;5067919;28;20396;-69
2023/09/03 04:19:05;;;;;;;9.27;7.80;;;14.00;1.00;;;;;;5068127;28;20886;-69
2023/09/03 04:21:31;;;;;;;10.35;8.80;;;13.90;1.00;;;;;;5067762;28;20457;-69
2023/09/03 04:23:56;;;;;;;9.37;8.23;;;13.90;1.00;;;;;;5068123;28;20771;-69
2023/09/03 04:26:22;;;;;;;9.98;8.55;;;13.90;1.00;;;;;;5068057;28;20415;-69
2023/09/03 04:28:48;;;;;;;10.60;8.67;;;13.90;1.00;;;;;;5071953;28;20405;-69
2023/09/03 04:31:13;;;;;;;9.75;8.60;;;13.90;1.00;;;;;;5085647;28;20402;-69
2023/09/03 04:33:39;;;;;;;9.13;8.23;;;13.90;1.00;;;;;;5067598;28;20428;-69
2023/09/03 04:36:05;;;;;;;8.93;7.93;;;13.90;1.00;;;;;;5049582;28;20408;-69
2023/09/03 04:38:30;;;;;;;9.37;8.37;;;13.80;1.00;;;;;;5071507;28;20483;-69
2023/09/03 04:40:56;;;;;;;9.65;7.90;;;13.80;1.00;;;;;;5086201;28;20752;-69
2023/09/03 04:43:23;;;;;;;10.38;7.75;;;13.80;1.00;;;;;;5067486;28;20416;-69
2023/09/03 04:45:52;;;;;;;9.27;8.18;;;13.80;1.00;;;;;;5079204;28;20394;-69
2023/09/03 04:48:19;;;;;;;9.57;7.97;;;13.80;1.00;;;;;;5066269;28;20620;-69
2023/09/03 04:50:45;;;;;;;8.77;7.30;;;13.80;1.00;;;;;;5064685;28;20436;-69
2023/09/03 04:53:14;;;;;;;9.73;7.77;;;13.80;1.00;;;;;;5082211;28;20464;-69
2023/09/03 04:55:41;;;;;;;8.68;7.70;;;13.70;1.00;;;;;;5084383;28;20396;-69
2023/09/03 04:58:06;;;;;;;9.68;8.23;;;13.80;1.00;;;;;;5084037;28;20900;-69
2023/09/03 05:00:32;;;;;;;9.48;8.50;;;13.70;1.00;;;;;;5084838;28;21051;-69
2023/09/03 05:02:58;;;;;;;9.35;8.40;;;13.70;1.00;;;;;;5072040;28;20393;-69
2023/09/03 05:05:24;;;;;;;9.50;8.07;;;13.80;1.80;;;;;;5067068;28;20405;-69
2023/09/03 05:07:51;;;;;;;10.40;9.00;;;13.80;3.20;;;;;;5070519;28;20394;-69
2023/09/03 05:10:17;;;;;;;9.60;8.60;;;13.80;5.70;;;;;;5084969;28;20401;-69
2023/09/03 05:12:43;;;;;;;10.98;8.77;;;13.80;6.80;;;;;;5084984;28;20426;-69
2023/09/03 05:15:11;;;;;;;9.43;8.00;;;13.80;8.30;;;;;;5084209;28;20408;-68
2023/09/03 05:17:37;;;;;;;10.70;8.50;;;13.80;9.30;;;;;;5084987;28;20402;-69
2023/09/03 05:20:03;;;;;;;9.63;8.50;;;13.90;9.40;;;;;;5073045;28;20414;-69
2023/09/03 05:22:29;;;;;;;11.53;8.77;;;13.90;9.00;;;;;;5070678;28;20457;-69
2023/09/03 05:24:55;;;;;;;8.80;7.90;;;13.90;9.70;;;;;;5083098;28;20524;-69
2023/09/03 05:27:20;;;;;;;9.40;8.40;;;13.90;9.60;;;;;;5089339;28;20408;-69
2023/09/03 05:29:46;;;;;;;10.03;8.40;;;13.90;9.60;;;;;;5088433;28;20823;-69
2023/09/03 05:32:11;;;;;;;9.57;8.13;;;14.00;10.20;;;;;;5087981;28;20401;-69
2023/09/03 05:34:37;;;;;;;8.97;8.07;;;14.00;11.30;;;;;;5088138;28;20985;-69
2023/09/03 05:37:03;;;;;;;9.70;7.65;;;14.00;12.20;;;;;;5088585;28;20536;-69
2023/09/03 05:39:29;;;;;;;9.23;8.30;;;14.00;13.70;;;;;;5088067;28;20398;-69
2023/09/03 05:41:55;;;;;;;9.60;8.60;;;14.10;14.30;;;;;;5087653;28;20398;-69
2023/09/03 05:44:21;;;;;;;9.00;8.10;;;14.10;15.00;;;;;;5076963;28;20483;-70
2023/09/03 05:46:46;;;;;;;10.70;8.77;;;14.20;16.10;;;;;;5087969;28;20437;-69
2023/09/03 05:49:12;;;;;;;9.53;8.10;;;14.20;17.10;;;;;;5076749;28;20810;-69
2023/09/03 05:51:39;;;;;;;9.13;7.85;;;14.30;18.20;;;;;;5071234;28;20903;-69
2023/09/03 05:54:06;;;;;;;9.10;8.20;;;14.40;19.10;;;;;;5070327;28;20505;-69
2023/09/03 05:56:34;;;;;;;8.60;7.75;;;14.50;19.20;;;;;;5069636;28;20404;-69
2023/09/03 05:59:05;;;;;;;9.67;8.00;;;14.50;19.00;;;;;;5069910;28;20411;-69
2023/09/03 06:01:31;;;;;;;10.13;8.35;;;14.60;17.70;;;;;;5065791;28;20430;-69
2023/09/03 06:03:58;;;;;;;8.98;8.00;;;14.60;16.20;;;;;;5088007;28;20406;-69
2023/09/03 06:06:24;;;;;;;9.95;8.65;;;14.60;16.40;;;;;;5080658;28;20438;-69
2023/09/03 06:08:50;;;;;;;9.27;8.13;;;14.70;16.80;;;;;;5083012;28;20645;-69
2023/09/03 06:11:15;;;;;;;10.23;8.27;;;14.70;17.20;;;;;;5081496;28;20465;-69
2023/09/03 06:13:41;;;;;;;9.90;8.03;;;14.70;17.70;;;;;;5082996;28;20476;-69
2023/09/03 06:16:06;;;;;;;9.32;8.38;;;14.80;17.60;;;;;;5089492;28;20397;-70
2023/09/03 06:18:32;;;;;;;10.00;8.10;;;14.80;17.00;;;;;;5073712;28;20837;-69
2023/09/03 06:20:58;;;;;;;10.52;8.30;;;14.90;17.90;;;;;;5077934;28;20402;-69
2023/09/03 06:23:24;;;;;;;11.17;8.80;;;14.90;19.40;;;;;;5075901;28;20456;-69
2023/09/03 06:25:50;;;;;;;9.75;8.75;;;15.00;19.50;;;;;;5082953;28;20403;-69
2023/09/03 06:28:16;;;;;;;9.98;8.80;;;15.00;18.80;;;;;;5070471;28;20400;-69
2023/09/03 06:30:42;;;;;;;10.60;8.93;;;15.10;19.10;;;;;;5070528;28;20404;-69
2023/09/03 06:33:09;;;;;;;10.77;9.05;;;15.10;19.00;;;;;;5068550;28;20428;-69
2023/09/03 06:35:35;;;;;;;10.35;8.65;;;15.20;20.00;;;;;;5070088;28;20853;-69
2023/09/03 06:38:01;;;;;;;10.73;9.60;;;15.20;21.00;;;;;;5052126;28;20436;-69
2023/09/03 06:40:27;;;;;;;10.00;8.90;;;15.30;22.00;;;;;;5069856;28;20403;-69
2023/09/03 06:42:52;;;;;;;10.52;8.90;;;15.30;22.60;;;;;;5068685;28;21291;-69
2023/09/03 06:45:19;;;;;;;9.68;8.57;;;15.40;22.80;;;;;;5070464;28;20399;-69
2023/09/03 06:47:45;;;;;;;9.90;8.90;;;15.50;23.60;;;;;;5070337;28;20403;-69
2023/09/03 06:50:11;;;;;;;9.38;8.48;;;15.60;22.60;;;;;;5069921;28;20410;-69
2023/09/03 06:52:38;;;;;;;11.20;8.48;;;15.60;21.00;;;;;;5070396;28;20941;-69
2023/09/03 06:55:04;;;;;;;10.30;8.63;;;15.60;20.00;;;;;;5070038;28;20403;-69
2023/09/03 06:57:30;;;;;;;10.45;8.55;;;15.70;20.40;;;;;;5051956;28;20537;-69
2023/09/03 06:59:56;;;;;;;9.75;8.18;;;15.70;21.00;;;;;;5070068;28;20396;-69
2023/09/03 07:02:22;;;;;;;9.80;8.33;;;15.80;20.70;;;;;;5065472;28;20426;-70
2023/09/03 07:04:48;;;;;;;8.98;8.05;;;15.80;21.50;;;;;;5067551;28;20471;-70
2023/09/03 07:07:14;;;;;;;9.73;8.20;;;15.90;22.60;;;;;;5067859;28;20483;-70
2023/09/03 07:09:40;;;;;;;8.82;7.68;;;16.00;23.90;;;;;;5061085;28;20400;-70
2023/09/03 07:12:06;;;;;;;10.70;7.77;;;16.10;24.10;;;;;;5059503;28;20402;-70
2023/09/03 07:14:35;;;;;;;9.68;7.57;;;16.20;22.90;;;;;;5071907;28;20403;-70
2023/09/03 07:17:03;;;;;;;8.13;7.32;;;16.30;22.70;;;;;;5063224;28;20411;-70
2023/09/03 07:19:29;;;;;;;8.48;7.43;;;16.40;21.60;;;;;;5068293;28;20913;-70
2023/09/03 07:21:55;;;;;;;8.43;7.10;;;16.50;22.10;;;;;;5070162;28;20417;-70
2023/09/03 07:24:21;;;;;;;7.85;7.05;;;16.60;21.10;;;;;;5067469;28;20963;-69
2023/09/03 07:26:47;;;;;;;8.18;6.60;;;16.70;20.00;;;;;;5066437;28;20437;-71
2023/09/03 07:29:13;;;;;;;7.27;6.47;;;16.80;18.50;;;;;;5067845;28;20545;-69
2023/09/03 07:31:43;;;;;;;7.65;6.53;;;17.00;17.10;;;;;;5076091;28;20811;-69
2023/09/03 07:34:10;;;;;;;6.88;5.72;;;17.10;15.20;;;;;;5069615;28;20442;-71
2023/09/03 07:36:36;;;;;;;8.70;5.97;;;17.10;8.80;;;;;;5069433;28;20434;-69
2023/09/03 07:39:03;;;;;;;8.32;5.57;;;17.20;8.00;;;;;;5068808;28;20505;-69
2023/09/03 07:41:30;;;;;;;7.20;5.90;;;17.20;1.80;;;;;;5068605;28;20403;-69
2023/09/03 07:43:56;;;;;;;6.95;5.80;;;17.30;2.30;;;;;;5068808;28;20427;-69
2023/09/03 07:46:21;;;;;;;8.00;5.57;;;17.30;1.30;;;;;;5081089;28;20453;-69
2023/09/03 07:48:47;;;;;;;7.53;5.53;;;17.40;1.10;;;;;;5070133;28;20518;-69
2023/09/03 07:51:15;;;;;;;6.43;5.40;;;17.50;1.00;;;;;;5067945;28;20518;-69
2023/09/03 07:53:41;;;;;;;8.18;6.40;;;17.60;1.00;;;;;;5073172;28;20459;-69
2023/09/03 07:56:07;;;;;;;6.70;5.70;;;17.60;1.00;;;;;;5059211;28;20413;-69
2023/09/03 07:58:32;;;;;;;6.47;5.70;;;17.70;1.00;;;;;;5067979;28;21251;-69
2023/09/03 08:00:58;;;;;;;7.90;6.10;;;17.70;1.00;;;;;;5066925;28;20904;-69
2023/09/03 08:03:43;;;;;;;6.17;5.30;;;17.70;1.00;;;;;;5068731;28;20407;-69
2023/09/03 08:06:09;;;;;;;5.90;5.25;;;17.70;1.00;;;;;;5068320;28;20497;-71
2023/09/03 08:08:35;;;;;;;6.45;5.40;;;17.80;1.00;;;;;;5064713;28;20424;-69
2023/09/03 08:11:01;;;;;;;7.85;5.10;;;17.80;1.00;;;;;;5068722;28;20428;-68
2023/09/03 08:13:27;;;;;;;6.15;5.38;;;17.90;1.00;;;;;;5074661;28;20522;-68
2023/09/03 08:15:53;;;;;;;8.30;5.43;;;17.90;1.00;;;;;;5066375;28;20457;-69
2023/09/03 08:18:21;;;;;;;6.53;5.40;;;18.00;1.00;;;;;;5066077;28;20465;-69
2023/09/03 08:20:49;;;;;;;6.47;4.72;;;18.20;1.00;;;;;;5071774;28;20535;-69
2023/09/03 08:23:14;;;;;;;7.40;4.82;;;18.20;1.00;;;;;;5066543;28;20415;-69
2023/09/03 08:25:40;;;;;;;7.63;4.77;;;18.30;1.00;;;;;;5075205;28;21065;-69
2023/09/03 08:28:10;;;;;;;6.20;4.63;;;18.40;1.00;;;;;;5070626;28;20411;-69
2023/09/03 08:30:37;;;;;;;6.40;4.10;;;18.50;1.00;;;;;;5066864;28;20783;-69
2023/09/03 08:33:03;;;;;;;5.50;3.67;;;18.60;1.00;;;;;;5063870;28;20424;-70
2023/09/03 08:35:28;;;;;;;5.30;4.10;;;18.70;1.00;;;;;;5068835;28;20472;-70
2023/09/03 08:37:54;;;;;;;6.13;3.83;;;18.70;1.00;;;;;;5068747;28;20465;-70
2023/09/03 08:40:21;;;;;;;5.70;4.07;;;18.80;1.00;;;;;;5070960;28;20422;-70
2023/09/03 08:42:48;;;;;;;5.72;3.38;;;18.90;1.00;;;;;;5058859;28;20528;-70
2023/09/03 08:45:17;;;;;;;6.43;3.42;;;19.00;1.00;;;;;;5062174;28;20435;-70
2023/09/03 08:47:44;;;;;;;5.38;3.50;;;19.10;1.00;;;;;;5061844;28;20499;-70
2023/09/03 08:50:15;;;;;;;5.70;3.00;;;19.30;1.00;;;;;;5064627;28;20770;-70
2023/09/03 08:52:42;;;;;;;5.47;2.92;;;19.40;1.00;;;;;;5067447;28;20450;-70
2023/09/03 08:55:11;;;;;;;3.27;2.20;;;19.50;1.00;;;;;;5067460;28;20412;-71
2023/09/03 08:57:36;;;;;;;4.05;2.55;;;19.50;1.00;;;;;;5064040;28;20422;-70
2023/09/03 09:00:06;;;;;;;5.10;2.57;;;19.60;1.00;;;;;;5079194;28;20394;-71
2023/09/03 09:02:36;;;;;;;3.92;2.40;;;19.60;1.00;;;;;;5064227;28;20439;-70
2023/09/03 09:05:04;;;;;;;4.28;2.30;;;19.70;1.00;;;;;;5074670;28;20688;-70
2023/09/03 09:07:31;;;;;;;3.78;2.28;;;19.80;1.00;;;;;;5069787;28;20405;-70
2023/09/03 09:10:00;;;;;;;5.20;2.08;;;19.90;99.90;;;;;;5069187;28;20411;-70
2023/09/03 09:12:36;;;;;;;3.35;2.25;;;19.90;99.90;;;;;;5073125;28;20477;-70
2023/09/03 09:15:04;;;;;;;4.70;1.95;;;19.90;99.90;;;;;;5064726;28;20411;-70
2023/09/03 09:17:43;;;;;;;4.67;2.40;;;19.90;99.90;;;;;;5070183;28;20497;-70
2023/09/03 09:20:10;;;;;;;3.47;1.70;;;20.00;99.90;;;;;;5070103;28;20424;-70
2023/09/03 09:22:43;;;;;;;3.75;2.15;;;20.30;99.90;;;;;;5074106;28;20467;-70
2023/09/03 09:25:16;;;;;;;4.22;1.92;;;20.70;99.90;;;;;;5061200;28;20411;-70
2023/09/03 09:27:42;;;;;;;3.30;1.48;;;20.90;99.90;;;;;;5065242;28;20419;-70
2023/09/03 09:30:16;;;;;;;2.80;1.23;;;21.40;99.90;;;;;;5063609;28;20768;-70
2023/09/03 09:32:43;;;;;;;3.65;1.05;;;21.80;99.90;;;;;;5062331;28;20434;-71
2023/09/03 09:35:09;;;;;;;2.50;1.13;;;22.10;1.00;;;;;;5068645;28;20991;-71
2023/09/03 09:37:41;;;;;;;3.20;1.05;;;22.70;99.90;;;;;;5064118;28;20786;-71
2023/09/03 09:40:08;;;;;;;4.28;1.10;;;23.20;1.00;;;;;;5063869;28;20450;-71
2023/09/03 09:42:50;;;;;;;2.50;1.08;;;23.40;99.90;;;;;;5066977;28;20486;-71
2023/09/03 09:45:16;;;;;;;3.78;1.10;;;23.50;99.90;;;;;;5067117;28;20414;-71
2023/09/03 09:47:42;;;;;;;2.57;1.10;;;23.90;1.30;;;;;;5066560;28;20411;-71
2023/09/03 09:50:08;;;;;;;1.55;0.70;;;24.40;99.90;;;;;;5062104;28;20400;-71
2023/09/03 09:52:35;;;;;;;3.27;0.80;;;24.80;1.00;;;;;;5067936;28;20427;-71
2023/09/03 09:55:01;;;;;;;2.45;0.80;;;25.30;99.90;;;;;;5072352;28;20753;-71
2023/09/03 09:57:27;;;;;;;2.05;0.80;;;25.50;99.90;;;;;;5066098;28;20408;-71
2023/09/03 10:00:03;;;;;;;1.77;0.60;;;25.60;99.90;;;;;;5049042;28;20433;-71
2023/09/03 10:02:28;;;;;;;1.90;0.70;;;25.70;55.00;;;;;;5059460;28;20449;-71
2023/09/03 10:04:55;;;;;;;2.15;0.73;;;25.80;1.00;;;;;;5054266;28;20506;-72
2023/09/03 10:07:21;;;;;;;2.30;0.80;;;26.00;1.00;;;;;;5050039;28;20450;-72
2023/09/03 10:09:46;;;;;;;5.87;2.60;;;26.20;1.00;;;;;;5076949;28;20485;-72
2023/09/03 10:12:13;;;;;;;3.53;1.55;;;26.30;1.00;;;;;;5073702;28;20881;-72
2023/09/03 10:14:39;;;;;;;2.60;0.80;;;26.50;1.00;;;;;;5070789;28;20443;-72
2023/09/03 10:17:07;;;;;;;3.27;1.00;;;26.90;1.00;;;;;;5072890;28;20423;-72
2023/09/03 10:19:55;;;;;;;3.08;1.23;;;27.10;99.90;;;;;;5075252;28;20465;-72
2023/09/03 10:22:23;;;;;;;9.45;4.63;;;27.10;99.90;;;;;;5072287;28;20485;-72
2023/09/03 10:24:56;;;;;;;8.07;4.23;;;27.20;99.90;;;;;;5075332;28;20525;-69
2023/09/03 10:27:27;;;;;;;3.05;0.63;;;27.40;99.90;;;;;;5078697;28;20398;-69
2023/09/03 10:29:56;;;;;;;2.47;1.00;;;27.70;99.90;;;;;;5069167;28;20415;-71
2023/09/03 10:32:23;;;;;;;2.70;0.80;;;27.90;99.90;;;;;;5071228;28;20829;-71
2023/09/03 10:34:49;;;;;;;2.28;0.70;;;27.90;99.90;;;;;;5068268;28;20995;-71
2023/09/03 10:37:14;;;;;;;2.83;0.63;;;27.90;99.90;;;;;;5068024;28;20549;-71
2023/09/03 10:39:43;;;;;;;2.85;0.50;;;27.80;99.90;;;;;;5072584;28;20848;-71
2023/09/03 10:42:17;;;;;;;1.38;0.70;;;28.00;99.90;;;;;;5068582;28;20454;-71
2023/09/03 10:44:44;;;;;;;1.47;0.50;;;28.20;99.90;;;;;;5065195;28;20426;-71
2023/09/03 10:47:17;;;;;;;2.33;0.60;;;28.30;99.90;;;;;;5067709;28;20916;-71
2023/09/03 10:49:47;;;;;;;1.70;0.57;;;28.00;99.90;;;;;;5070259;28;20417;-71
2023/09/03 10:52:30;;;;;;;1.80;0.85;;;27.50;99.90;;;;;;5070276;28;20407;-71
2023/09/03 10:55:12;;;;;;;2.35;0.80;;;26.90;99.90;;;;;;5068534;28;20410;-71
2023/09/03 10:57:38;;;;;;;2.33;0.70;;;26.50;99.90;;;;;;5064904;28;20457;-71
2023/09/03 11:00:06;;;;;;;1.67;0.50;;;26.70;99.90;;;;;;5076825;28;20394;-71
2023/09/03 11:02:34;;;;;;;2.40;0.70;;;27.10;99.90;;;;;;5068053;28;20823;-70
2023/09/03 11:05:15;;;;;;;1.45;0.55;;;27.50;99.90;;;;;;5067213;28;20407;-71
2023/09/03 11:07:44;;;;;;;2.67;0.70;;;27.90;99.90;;;;;;5076530;28;20495;-70
2023/09/03 11:10:24;;;;;;;2.75;0.85;;;28.10;99.90;;;;;;5067497;28;21047;-71
2023/09/03 11:12:52;;;;;;;2.03;0.60;;;28.10;99.90;;;;;;5054586;28;20432;-70
2023/09/03 11:15:18;;;;;;;1.70;0.60;;;28.10;99.90;;;;;;5067961;28;20475;-71
2023/09/03 11:17:53;;;;;;;1.77;0.60;;;28.10;99.90;;;;;;5057997;28;20417;-70
2023/09/03 11:20:30;;;;;;;2.25;0.80;;;28.00;99.90;;;;;;5078482;28;20420;-68
2023/09/03 11:22:57;;;;;;;1.50;0.60;;;27.80;99.90;;;;;;5062441;28;20420;-69
2023/09/03 11:25:40;;;;;;;1.90;0.70;;;27.60;99.90;;;;;;5077112;28;20398;-69
2023/09/03 11:28:08;;;;;;;2.40;0.65;;;27.10;99.90;;;;;;5063129;28;20549;-69
2023/09/03 11:30:34;;;;;;;2.40;0.52;;;27.00;99.90;;;;;;5068801;28;20407;-69
2023/09/03 11:33:00;;;;;;;1.77;0.70;;;27.00;99.90;;;;;;5068332;28;20432;-69
2023/09/03 11:35:27;;;;;;;3.10;0.70;;;27.00;99.90;;;;;;5068980;28;20769;-69
2023/09/03 11:37:53;;;;;;;2.45;0.60;;;27.40;99.90;;;;;;5068231;28;20750;-69
2023/09/03 11:40:24;;;;;;;2.45;0.70;;;27.80;99.90;;;;;;5072054;28;20404;-70
2023/09/03 11:42:50;;;;;;;2.70;0.60;;;28.20;99.90;;;;;;5050080;28;20833;-69
2023/09/03 11:45:16;;;;;;;2.47;0.70;;;28.50;99.90;;;;;;5068130;28;20407;-69
2023/09/03 11:47:49;;;;;;;2.80;0.60;;;28.80;99.90;;;;;;5062290;28;20402;-69
2023/09/03 11:50:16;;;;;;;3.28;0.60;;;29.00;99.90;;;;;;5086780;28;20879;-69
2023/09/03 11:52:49;;;;;;;1.42;0.50;;;28.60;99.90;;;;;;5076144;28;20414;-70
2023/09/03 11:55:15;;;;;;;2.20;0.60;;;28.40;99.90;;;;;;5072576;28;20418;-70
2023/09/03 11:57:46;;;;;;;1.55;0.52;;;28.70;99.90;;;;;;5059801;28;20946;-69
2023/09/03 12:00:12;;;;;;;1.77;0.52;;;29.00;99.90;;;;;;5064383;28;21543;-69
2023/09/03 12:02:42;;;;;;;3.10;0.80;;;29.30;99.90;;;;;;5059106;28;20418;-69
2023/09/03 12:05:09;;;;;;;2.03;0.55;;;28.90;99.90;;;;;;5068290;28;20398;-69
2023/09/03 12:07:35;;;;;;;3.80;0.80;;;28.30;99.90;;;;;;5078363;28;20396;-70
2023/09/03 12:10:01;;;;;;;1.67;0.50;;;27.70;99.90;;;;;;5080903;28;20410;-70
2023/09/03 12:12:27;;;;;;;2.90;0.55;;;27.50;99.90;;;;;;5078216;28;20429;-70
2023/09/03 12:14:53;;;;;;;1.58;0.45;;;27.50;99.90;;;;;;5073860;28;20402;-70
2023/09/03 12:17:25;;;;;;;1.47;0.47;;;27.60;99.90;;;;;;5077764;28;20402;-70
2023/09/03 12:19:51;;;;;;;1.90;0.60;;;27.80;99.90;;;;;;5081019;28;20447;-70
2023/09/03 12:22:19;;;;;;;2.42;0.50;;;27.90;99.90;;;;;;5067775;28;20774;-70
2023/09/03 12:24:48;;;;;;;2.63;0.70;;;27.80;99.90;;;;;;5062955;28;20408;-70
2023/09/03 12:27:15;;;;;;;1.98;0.55;;;27.60;99.90;;;;;;5062041;28;20422;-70
2023/09/03 12:29:41;;;;;;;2.77;0.70;;;27.40;99.90;;;;;;5056591;28;20475;-70
2023/09/03 12:32:09;;;;;;;2.63;0.63;;;27.10;99.90;;;;;;5064352;28;20917;-69
2023/09/03 12:34:39;;;;;;;2.40;0.60;;;26.90;99.90;;;;;;5067857;28;20926;-70
2023/09/03 12:37:06;;;;;;;1.83;0.70;;;26.80;99.90;;;;;;5062151;28;20487;-69
2023/09/03 12:39:32;;;;;;;62.55;5.45;;;26.90;99.90;;;;;;5067627;28;20493;-69
2023/09/03 12:42:04;;;;;;;2.53;0.70;;;26.60;99.90;;;;;;5057209;28;20425;-69
2023/09/03 12:44:30;;;;;;;2.33;0.50;;;26.40;99.90;;;;;;5065842;28;20411;-70
2023/09/03 12:46:56;;;;;;;2.42;0.60;;;26.30;99.90;;;;;;5067450;28;20400;-70
2023/09/03 12:49:22;;;;;;;2.35;0.60;;;26.60;99.90;;;;;;5067952;28;20457;-69
2023/09/03 12:51:48;;;;;;;1.70;0.70;;;27.20;99.90;;;;;;5066945;28;20410;-70
2023/09/03 12:54:14;;;;;;;1.83;0.70;;;27.40;99.90;;;;;;5062687;28;20499;-70